Time;durP1;ratioP1;P1;durP2;ratioP2;P2;SDS_P1;SDS_P2;PMS_P1;PMS_P2;Temp;Humidity;BMP_temperature;BMP_pressure;BME280_temperature;BME280_humidity;BME280_pressure;Samples;Min_cycle;Max_cycle;Signal;HPM_P1;HPM_P2
2022/10/20 00:01:23;;;;;;;;;17.80;17.20;;;;;15.57;51.34;100081.81;5049668;28;8954;-77
2022/10/20 00:03:54;;;;;;;;;21.40;19.20;;;;;14.67;54.17;100079.25;5050424;28;9654;-78
2022/10/20 00:06:25;;;;;;;;;21.60;20.00;;;;;14.50;54.38;100076.75;5048946;28;8872;-77
2022/10/20 00:08:55;;;;;;;;;22.00;21.00;;;;;14.57;54.27;100083.72;5035959;28;9714;-76
2022/10/20 00:11:25;;;;;;;;;20.20;18.80;;;;;14.38;55.15;100079.44;5031456;28;8851;-79
2022/10/20 00:13:56;;;;;;;;;20.60;20.20;;;;;14.03;56.58;100084.06;5013650;28;8922;-76
2022/10/20 00:16:27;;;;;;;;;23.80;21.60;;;;;13.68;57.66;100086.00;5009519;28;8875;-78
2022/10/20 00:18:58;;;;;;;;;21.80;20.20;;;;;13.71;57.27;100078.13;5047508;28;8869;-78
2022/10/20 00:21:28;;;;;;;;;26.00;25.25;;;;;13.34;58.88;100073.03;5048714;28;8942;-78
2022/10/20 00:24:00;;;;;;;;;19.80;18.40;;;;;13.20;59.45;100073.03;5029949;28;8889;-77
2022/10/20 00:26:30;;;;;;;;;21.00;20.00;;;;;13.12;59.12;100059.97;5049302;28;8845;-78
2022/10/20 00:29:01;;;;;;;;;24.25;21.00;;;;;13.02;59.73;100082.69;5047979;28;8857;-77
2022/10/20 00:31:30;;;;;;;;;23.00;20.80;;;;;12.98;59.43;100078.31;5043915;28;8852;-76
2022/10/20 00:34:01;;;;;;;;;27.50;21.50;;;;;12.99;60.30;100079.19;5047888;28;8983;-77
2022/10/20 00:36:29;;;;;;;;;19.60;18.20;;;;;13.31;58.47;100081.78;5044115;28;8856;-77
2022/10/20 00:39:00;;;;;;;;;23.40;21.40;;;;;13.29;59.13;100082.59;5027879;28;8875;-77
2022/10/20 00:41:30;;;;;;;;;20.20;19.40;;;;;13.13;59.47;100097.50;5027849;28;9701;-78
2022/10/20 00:44:01;;;;;;;;;24.80;22.40;;;;;12.87;60.71;100086.19;4992662;28;8913;-78
2022/10/20 00:46:37;;;;;;;;;22.20;21.60;;;;;12.84;60.13;100083.56;5029631;28;8855;-79
2022/10/20 00:49:15;;;;;;;;;22.00;19.00;;;;;12.84;60.60;100080.97;5044762;28;9002;-79
2022/10/20 00:51:44;;;;;;;;;26.00;22.75;;;;;12.67;60.87;100090.56;5048134;28;8860;-80
2022/10/20 00:54:19;;;;;;;;;26.50;24.00;;;;;12.53;60.93;100076.59;5047667;28;8857;-78
2022/10/20 00:56:49;;;;;;;;;23.40;20.60;;;;;12.25;62.45;100076.59;5050612;28;8864;-78
2022/10/20 00:59:21;;;;;;;;;24.25;23.00;;;;;12.19;62.44;100080.09;5060348;28;9645;-77
2022/10/20 01:01:50;;;;;;;;;29.75;25.50;;;;;12.27;61.96;100073.13;5059091;28;8941;-78
2022/10/20 01:04:20;;;;;;;;;16.50;14.75;;;;;12.25;61.63;100076.59;5054893;28;8982;-78
2022/10/20 01:06:49;;;;;;;;;24.25;20.50;;;;;12.26;61.67;100070.50;5030484;28;8840;-77
2022/10/20 01:09:18;;;;;;;;;20.50;18.50;;;;;12.21;62.44;100072.22;5028958;28;9606;-77
2022/10/20 01:11:57;;;;;;;;;21.00;18.25;;;;;12.16;62.00;100071.38;5029096;28;8858;-78
2022/10/20 01:14:38;;;;;;;;;22.40;20.20;;;;;12.05;63.02;100079.19;5029573;28;8887;-77
2022/10/20 01:17:17;;;;;;;;;23.50;22.75;;;;;12.20;62.66;100073.97;5027645;28;8851;-78
2022/10/20 01:20:24;;;;;;;;;23.75;21.50;;;;;12.11;63.09;100068.72;5029238;28;8863;-78
2022/10/20 01:23:30;;;;;;;;;28.50;23.00;;;;;12.06;63.28;100066.13;5047226;28;8963;-79
2022/10/20 01:26:29;;;;;;;;;23.75;21.25;;;;;12.26;61.75;100070.50;4974181;28;8985;-78
2022/10/20 01:29:01;;;;;;;;;20.50;18.50;;;;;12.36;61.79;100067.03;5006896;28;8850;-76
2022/10/20 01:31:35;;;;;;;;;21.60;20.80;;;;;12.81;60.13;100073.09;5006104;28;8858;-78
2022/10/20 01:34:11;;;;;;;;;21.00;19.40;;;;;13.14;59.12;100068.69;4990460;28;8904;-78
2022/10/20 01:36:47;;;;;;;;;20.00;18.40;;;;;13.29;58.38;100066.88;5006981;28;8846;-78
2022/10/20 01:39:21;;;;;;;;;22.00;18.60;;;;;13.62;57.69;100079.03;5003143;28;8856;-78
2022/10/20 01:41:54;;;;;;;;;23.60;23.20;;;;;13.86;57.00;100070.19;4987505;28;8979;-77
2022/10/20 01:44:27;;;;;;;;;22.50;22.50;;;;;14.08;56.71;100073.53;4987385;28;9634;-79
2022/10/20 01:46:58;;;;;;;;;26.25;24.75;;;;;14.17;56.30;100076.09;4992236;28;8881;-79
2022/10/20 01:49:27;;;;;;;;;26.25;24.50;;;;;14.32;55.93;100082.13;4990134;28;8893;-77
2022/10/20 01:51:57;;;;;;;;;26.75;26.25;;;;;14.37;55.84;100082.97;4989948;28;8892;-81
2022/10/20 01:54:28;;;;;;;;;27.25;26.00;;;;;14.43;55.79;100078.53;5006561;28;8896;-79
2022/10/20 01:57:13;;;;;;;;;24.25;22.25;;;;;14.55;55.25;100076.69;5001770;28;9622;-78
2022/10/20 01:59:54;;;;;;;;;28.75;21.75;;;;;14.60;54.95;100083.69;4970634;28;8963;-77
2022/10/20 02:02:38;;;;;;;;;27.00;25.50;;;;;14.67;54.91;100081.00;4996384;28;8887;-79
2022/10/20 02:05:18;;;;;;;;;23.25;19.25;;;;;14.66;55.02;100088.00;5039416;28;8852;-78
2022/10/20 02:07:46;;;;;;;;;31.25;27.75;;;;;14.59;54.94;100092.44;5047302;28;8869;-79
2022/10/20 02:10:19;;;;;;;;;26.75;25.25;;;;;14.64;54.83;100092.41;5047195;28;8844;-78
2022/10/20 02:12:52;;;;;;;;;27.00;24.75;;;;;14.62;55.11;100091.53;5047205;28;8968;-79
2022/10/20 02:15:26;;;;;;;;;23.75;23.25;;;;;14.64;55.19;100088.91;5047888;28;8882;-78
2022/10/20 02:18:03;;;;;;;;;26.00;23.75;;;;;14.65;54.92;100093.25;5047046;28;8872;-78
2022/10/20 02:20:33;;;;;;;;;28.00;24.00;;;;;14.60;55.00;100090.69;5047405;28;8865;-76
2022/10/20 02:23:04;;;;;;;;;26.25;23.00;;;;;14.61;55.31;100093.31;5048486;28;10216;-79
2022/10/20 02:25:34;;;;;;;;;24.50;22.00;;;;;14.61;54.85;100102.91;5048545;28;8879;-77
2022/10/20 02:28:08;;;;;;;;;23.75;22.25;;;;;14.61;54.98;100095.03;5046979;28;8856;-77
2022/10/20 02:30:40;;;;;;;;;27.60;23.00;;;;;14.59;54.88;100102.06;5013155;28;8849;-78
2022/10/20 02:33:09;;;;;;;;;25.25;24.50;;;;;14.56;54.93;100102.94;5045223;28;8852;-79
2022/10/20 02:35:38;;;;;;;;;28.00;26.75;;;;;14.56;54.77;100102.06;5025702;28;9752;-78
2022/10/20 02:38:06;;;;;;;;;27.25;26.25;;;;;14.47;55.12;100099.50;5038499;28;8855;-77
2022/10/20 02:40:35;;;;;;;;;25.40;22.80;;;;;14.46;55.07;100103.00;5019574;28;8856;-78
2022/10/20 02:43:03;;;;;;;;;25.25;23.25;;;;;14.16;56.04;100110.22;5046301;28;8844;-78
2022/10/20 02:45:32;;;;;;;;;26.00;24.00;;;;;14.26;55.26;100122.38;5035261;28;8861;-78
2022/10/20 02:48:01;;;;;;;;;25.00;21.25;;;;;14.26;55.32;100117.16;4998222;28;10113;-77
2022/10/20 02:50:35;;;;;;;;;23.00;22.75;;;;;14.22;55.10;100115.44;5030864;28;8909;-80
2022/10/20 02:53:04;;;;;;;;;24.75;24.25;;;;;14.20;55.20;100127.69;5030335;28;8892;-80
2022/10/20 02:55:33;;;;;;;;;23.50;22.50;;;;;14.10;55.45;100121.63;5030758;28;8902;-78
2022/10/20 02:58:01;;;;;;;;;28.50;25.25;;;;;14.05;55.67;100120.78;5031307;28;8860;-78
2022/10/20 03:00:30;;;;;;;;;24.75;23.25;;;;;14.11;55.32;100117.25;5033449;28;8870;-79
2022/10/20 03:03:01;;;;;;;;;28.00;25.50;;;;;14.07;55.31;100119.00;5033300;28;8853;-78
2022/10/20 03:05:30;;;;;;;;;17.50;16.50;;;;;14.14;55.25;100122.44;5030648;28;9046;-79
2022/10/20 03:07:58;;;;;;;;;28.25;25.00;;;;;14.14;54.91;100125.97;5030605;28;8879;-80
2022/10/20 03:10:27;;;;;;;;;24.25;23.25;;;;;14.14;54.82;100123.34;5033311;28;8851;-77
2022/10/20 03:12:55;;;;;;;;;27.75;25.50;;;;;13.91;55.83;100128.69;5032572;28;8859;-77
2022/10/20 03:15:24;;;;;;;;;28.75;23.00;;;;;13.94;55.23;100127.81;5032452;28;8860;-78
2022/10/20 03:17:52;;;;;;;;;23.75;21.75;;;;;13.85;55.23;100128.72;5032925;28;8918;-78
2022/10/20 03:20:22;;;;;;;;;24.50;23.50;;;;;13.79;55.19;100121.75;5028969;28;8887;-78
2022/10/20 03:22:51;;;;;;;;;25.25;24.00;;;;;13.69;55.93;100134.94;5030523;28;8875;-78
2022/10/20 03:25:19;;;;;;;;;54.00;42.00;;;;;13.45;56.36;100131.50;5032702;28;8848;-78
2022/10/20 03:27:51;;;;;;;;;40.25;34.75;;;;;13.29;56.85;100137.59;5035706;28;8890;-78
2022/10/20 03:30:20;;;;;;;;;27.00;24.00;;;;;13.27;56.78;100133.25;5028582;28;8859;-78
2022/10/20 03:32:48;;;;;;;;;34.75;29.50;;;;;13.42;56.59;100136.72;5029944;28;8868;-77
2022/10/20 03:35:17;;;;;;;;;35.75;32.50;;;;;13.34;56.50;100141.13;5030261;28;8867;-78
2022/10/20 03:37:47;;;;;;;;;26.00;24.25;;;;;13.39;56.07;100140.25;5059761;28;8853;-80
2022/10/20 03:40:15;;;;;;;;;22.25;21.00;;;;;13.21;56.94;100148.09;5039336;28;8878;-78
2022/10/20 03:42:44;;;;;;;;;20.00;20.00;;;;;13.13;57.08;100144.63;5043066;28;8892;-77
2022/10/20 03:45:12;;;;;;;;;20.75;19.25;;;;;13.13;57.58;100142.00;5030748;28;8883;-78
2022/10/20 03:47:45;;;;;;;;;26.75;23.50;;;;;13.16;57.31;100144.63;5030454;28;8946;-77
2022/10/20 03:50:14;;;;;;;;;32.00;25.50;;;;;13.19;56.77;100147.22;5031016;28;8864;-77
2022/10/20 03:52:43;;;;;;;;;50.25;40.25;;;;;13.23;56.71;100149.84;5030193;28;8907;-76
2022/10/20 03:55:13;;;;;;;;;41.75;36.00;;;;;13.15;57.50;100153.34;5028647;28;8871;-77
2022/10/20 03:57:42;;;;;;;;;26.50;26.50;;;;;13.12;56.85;100154.25;5032322;28;8860;-79
2022/10/20 04:00:12;;;;;;;;;29.50;26.00;;;;;13.16;57.06;100149.88;5028427;28;8860;-78
2022/10/20 04:02:42;;;;;;;;;24.25;21.00;;;;;13.17;57.16;100154.22;5031637;28;8856;-78
2022/10/20 04:05:14;;;;;;;;;26.50;24.00;;;;;13.02;57.46;100155.09;5029215;28;8859;-77
2022/10/20 04:07:42;;;;;;;;;38.00;28.50;;;;;13.13;56.87;100157.72;5046365;28;8912;-77
2022/10/20 04:10:13;;;;;;;;;37.75;35.75;;;;;13.11;57.93;100159.47;5031250;28;8881;-80
2022/10/20 04:12:42;;;;;;;;;59.75;47.50;;;;;12.82;58.60;100160.38;5046341;28;8976;-79
2022/10/20 04:15:12;;;;;;;;;28.50;24.00;;;;;12.35;60.26;100164.66;5046189;28;8893;-77
2022/10/20 04:17:40;;;;;;;;;23.50;22.75;;;;;12.31;59.81;100165.53;5029316;28;8920;-79
2022/10/20 04:20:10;;;;;;;;;27.75;23.00;;;;;12.31;60.24;100165.53;5029569;28;8877;-78
2022/10/20 04:22:39;;;;;;;;;29.50;27.00;;;;;12.37;60.09;100156.81;5045792;28;8877;-77
2022/10/20 04:25:08;;;;;;;;;22.75;20.50;;;;;12.42;59.84;100161.19;5013725;28;8854;-78
2022/10/20 04:27:38;;;;;;;;;27.50;27.50;;;;;12.39;59.95;100155.06;5048628;28;8887;-77
2022/10/20 04:30:09;;;;;;;;;21.00;17.75;;;;;12.53;59.94;100162.94;5045537;28;9584;-78
2022/10/20 04:32:37;;;;;;;;;26.25;26.25;;;;;12.35;60.31;100158.56;5045560;28;8874;-78
2022/10/20 04:35:07;;;;;;;;;27.25;24.25;;;;;12.41;60.27;100169.91;5046161;28;8866;-78
2022/10/20 04:37:35;;;;;;;;;34.00;30.75;;;;;12.44;59.68;100167.28;5013261;28;8971;-78
2022/10/20 04:40:06;;;;;;;;;25.75;24.75;;;;;12.63;59.29;100162.09;5028856;28;8917;-78
2022/10/20 04:42:34;;;;;;;;;26.50;24.00;;;;;12.75;58.72;100169.06;5042069;28;8917;-78
2022/10/20 04:45:05;;;;;;;;;26.00;24.50;;;;;12.49;59.73;100172.53;5028233;28;8863;-78
2022/10/20 04:47:36;;;;;;;;;23.50;22.00;;;;;12.61;59.32;100176.94;4977055;28;8868;-79
2022/10/20 04:50:06;;;;;;;;;27.25;24.25;;;;;12.22;60.68;100168.09;5031324;28;8883;-78
2022/10/20 04:52:34;;;;;;;;;25.00;23.25;;;;;12.47;59.66;100174.25;5026571;28;8851;-78
2022/10/20 04:55:03;;;;;;;;;28.50;28.25;;;;;12.40;59.74;100176.00;5043386;28;8851;-78
2022/10/20 04:57:32;;;;;;;;;27.50;27.50;;;;;12.23;59.79;100173.34;5028694;28;8869;-79
2022/10/20 05:00:01;;;;;;;;;29.00;27.75;;;;;12.46;58.94;100176.00;5010506;28;10021;-78
2022/10/20 05:02:31;;;;;;;;;26.00;24.00;;;;;12.40;59.17;100172.50;5028089;28;8956;-78
2022/10/20 05:05:00;;;;;;;;;30.75;26.75;;;;;12.55;59.49;100174.28;5028199;28;8870;-77
2022/10/20 05:07:29;;;;;;;;;26.75;25.75;;;;;12.37;59.97;100183.84;5030445;28;8864;-80
2022/10/20 05:09:58;;;;;;;;;27.75;23.50;;;;;12.24;59.86;100187.28;5042965;28;8858;-79
2022/10/20 05:12:27;;;;;;;;;33.25;29.25;;;;;12.51;58.80;100196.06;5045142;28;8897;-78
2022/10/20 05:14:56;;;;;;;;;29.75;28.25;;;;;12.64;59.05;100190.00;5029888;28;8855;-79
2022/10/20 05:17:24;;;;;;;;;29.25;27.25;;;;;12.58;59.13;100196.09;5028268;28;8894;-79
2022/10/20 05:19:54;;;;;;;;;28.00;23.50;;;;;12.72;58.74;100198.75;5010717;28;9664;-79
2022/10/20 05:22:23;;;;;;;;;28.75;24.00;;;;;12.70;58.41;100197.84;5009892;28;8974;-77
2022/10/20 05:24:52;;;;;;;;;28.00;24.50;;;;;12.67;58.45;100197.84;5028768;28;8867;-79
2022/10/20 05:27:20;;;;;;;;;25.20;22.80;;;;;12.67;59.12;100211.81;5027931;28;8859;-77
2022/10/20 05:29:49;;;;;;;;;22.60;21.60;;;;;12.77;58.51;100212.69;5008652;28;8856;-79
2022/10/20 05:32:18;;;;;;;;;21.80;21.80;;;;;12.83;58.35;100207.44;5027584;28;8871;-78
2022/10/20 05:34:46;;;;;;;;;27.25;21.75;;;;;12.84;58.01;100216.19;5009935;28;8949;-77
2022/10/20 05:37:16;;;;;;;;;23.50;22.50;;;;;12.79;58.54;100221.41;5029242;28;8867;-79
2022/10/20 05:39:45;;;;;;;;;26.50;23.75;;;;;12.51;58.40;100230.94;5048655;28;8840;-78
2022/10/20 05:42:18;;;;;;;;;26.80;25.40;;;;;12.51;58.58;100233.56;5014703;28;8881;-78
2022/10/20 05:44:47;;;;;;;;;24.25;22.75;;;;;12.55;58.62;100237.06;4997592;28;8857;-78
2022/10/20 05:47:15;;;;;;;;;20.00;20.00;;;;;12.47;58.73;100248.38;5048292;28;8938;-79
2022/10/20 05:49:44;;;;;;;;;20.75;19.50;;;;;12.28;59.42;100246.56;5048302;28;8969;-78
2022/10/20 05:52:12;;;;;;;;;29.50;26.75;;;;;12.46;59.44;100245.78;5047316;28;8871;-79
2022/10/20 05:54:42;;;;;;;;;28.00;25.50;;;;;12.29;59.55;100243.97;5013649;28;8853;-79
2022/10/20 05:57:11;;;;;;;;;21.75;21.25;;;;;12.47;59.31;100251.00;5046472;28;8943;-79
2022/10/20 05:59:40;;;;;;;;;21.50;20.75;;;;;12.43;59.52;100256.22;5048584;28;8836;-79
2022/10/20 06:02:09;;;;;;;;;26.50;25.00;;;;;12.38;59.20;100261.44;5039607;28;8863;-78
2022/10/20 06:04:38;;;;;;;;;30.75;26.25;;;;;12.52;58.45;100256.25;5032572;28;10796;-79
2022/10/20 06:07:08;;;;;;;;;27.00;27.00;;;;;12.02;59.93;100265.66;5006789;28;8869;-77
2022/10/20 06:09:38;;;;;;;;;21.25;19.50;;;;;12.07;59.97;100265.66;5006466;28;8947;-77
2022/10/20 06:12:08;;;;;;;;;27.00;25.75;;;;;12.32;59.13;100268.38;5020461;28;8865;-80
2022/10/20 06:14:37;;;;;;;;;18.00;16.75;;;;;12.47;58.71;100269.31;5041174;28;8963;-78
2022/10/20 06:17:05;;;;;;;;;22.00;22.00;;;;;11.98;60.36;100274.31;5057986;28;8822;-78
2022/10/20 06:19:34;;;;;;;;;31.50;28.75;;;;;11.60;61.71;100292.34;5062446;28;8905;-79
2022/10/20 06:22:02;;;;;;;;;31.25;28.00;;;;;11.55;62.08;100288.81;5058528;28;8864;-78
2022/10/20 06:24:34;;;;;;;;;26.00;25.00;;;;;11.27;62.74;100299.06;5045056;28;8867;-78
2022/10/20 06:27:03;;;;;;;;;31.25;28.75;;;;;11.09;64.20;100300.59;5045790;28;8861;-77
2022/10/20 06:29:34;;;;;;;;;26.50;24.00;;;;;11.69;61.80;100302.88;5047682;28;8857;-77
2022/10/20 06:32:02;;;;;;;;;33.25;29.75;;;;;11.81;61.62;100308.16;5058023;28;9598;-80
2022/10/20 06:34:31;;;;;;;;;26.75;24.50;;;;;12.17;59.98;100306.66;5053057;28;8872;-79
2022/10/20 06:37:00;;;;;;;;;21.25;19.75;;;;;12.35;59.64;100305.03;5046900;28;8845;-79
2022/10/20 06:39:28;;;;;;;;;28.75;26.75;;;;;12.58;58.46;100318.19;5047146;28;8861;-78
2022/10/20 06:42:04;;;;;;;;;27.50;24.50;;;;;12.94;57.93;100317.41;5047403;28;8873;-77
2022/10/20 06:44:47;;;;;;;;;24.00;20.50;;;;;13.20;56.89;100313.97;5027871;28;8849;-78
2022/10/20 06:47:15;;;;;;;;;27.00;22.50;;;;;13.16;56.71;100317.47;5041825;28;8879;-79
2022/10/20 06:49:44;;;;;;;;;29.00;25.50;;;;;12.80;58.19;100321.75;5029906;28;8860;-77
2022/10/20 06:52:13;;;;;;;;;22.40;19.60;;;;;11.62;60.96;100333.28;5034739;28;8861;-79
2022/10/20 06:54:42;;;;;;;;;45.75;37.00;;;;;11.50;62.36;100338.41;5046078;28;9655;-77
2022/10/20 06:57:10;;;;;;;;;32.25;25.75;;;;;11.63;61.48;100332.44;5046296;28;9583;-77
2022/10/20 06:59:39;;;;;;;;;33.00;32.25;;;;;11.93;61.51;100330.03;5042948;28;8851;-80
2022/10/20 07:02:10;;;;;;;;;34.00;32.00;;;;;11.48;61.48;100340.13;5025870;28;8872;-79
2022/10/20 07:04:39;;;;;;;;;28.75;27.50;;;;;11.24;62.81;100341.66;5014532;28;8971;-79
2022/10/20 07:07:08;;;;;;;;;19.25;16.25;;;;;11.46;62.02;100337.50;5033840;28;8872;-78
2022/10/20 07:09:36;;;;;;;;;22.75;21.50;;;;;11.50;61.82;100348.88;5046642;28;8873;-80
2022/10/20 07:12:05;;;;;;;;;24.75;21.75;;;;;11.58;61.55;100341.97;5045748;28;8983;-75
2022/10/20 07:14:36;;;;;;;;;38.75;29.75;;;;;11.40;62.26;100347.91;5047286;28;8864;-77
2022/10/20 07:17:04;;;;;;;;;28.00;26.75;;;;;11.29;62.70;100345.19;5047151;28;8873;-75
2022/10/20 07:19:34;;;;;;;;;28.25;23.75;;;;;11.32;62.39;100341.72;5047481;28;8910;-75
2022/10/20 07:22:03;;;;;;;;;31.00;28.00;;;;;11.22;62.82;100352.94;5029218;28;8934;-76
2022/10/20 07:24:32;;;;;;;;;36.00;32.50;;;;;11.74;60.54;100350.81;5044571;28;8961;-74
2022/10/20 07:27:00;;;;;;;;;39.25;35.00;;;;;11.42;61.74;100361.84;5047643;28;8849;-75
2022/10/20 07:29:29;;;;;;;;;41.75;36.50;;;;;11.38;62.22;100361.78;5050555;28;8884;-75
2022/10/20 07:31:57;;;;;;;;;30.75;29.25;;;;;11.19;62.83;100366.88;5050813;28;8871;-74
2022/10/20 07:34:29;;;;;;;;;49.25;42.25;;;;;11.37;63.09;100360.94;5048710;28;9024;-75
2022/10/20 07:37:00;;;;;;;;;27.25;24.00;;;;;11.53;62.21;100361.97;5050032;28;8849;-74
2022/10/20 07:39:28;;;;;;;;;27.75;23.00;;;;;11.78;60.72;100362.16;5049166;28;8967;-75
2022/10/20 07:41:57;;;;;;;;;26.00;25.50;;;;;11.87;61.80;100359.59;5014791;28;8857;-75
2022/10/20 07:44:26;;;;;;;;;33.00;32.00;;;;;12.14;60.34;100358.94;5049243;28;8857;-74
2022/10/20 07:46:54;;;;;;;;;25.00;22.25;;;;;12.03;60.10;100361.50;5046747;28;8862;-72
2022/10/20 07:49:23;;;;;;;;;22.60;20.40;;;;;12.48;59.38;100359.13;5047360;28;8871;-75
2022/10/20 07:52:15;;;;;;;;;21.75;19.75;;;;;12.85;58.68;100356.66;5046776;28;8874;-75
2022/10/20 07:54:44;;;;;;;;;28.00;24.50;;;;;13.24;56.89;100353.25;5046215;28;9620;-74
2022/10/20 07:57:12;;;;;;;;;22.50;21.50;;;;;12.83;58.23;100350.53;5030062;28;8902;-73
2022/10/20 07:59:41;;;;;;;;;24.50;24.50;;;;;13.12;57.82;100349.75;5045964;28;8834;-78
2022/10/20 08:02:12;;;;;;;;;29.75;25.50;;;;;13.46;56.95;100340.25;5047132;28;8963;-77
2022/10/20 08:04:42;;;;;;;;;24.80;21.80;;;;;14.01;55.38;100345.44;5031291;28;8878;-78
2022/10/20 08:07:12;;;;;;;;;24.25;24.25;;;;;13.40;56.06;100350.69;5031351;28;8865;-76
2022/10/20 08:09:41;;;;;;;;;25.50;24.00;;;;;13.28;56.57;100354.16;5047561;28;8870;-76
2022/10/20 08:12:10;;;;;;;;;23.75;23.75;;;;;13.84;55.39;100345.44;5030677;28;8874;-76
2022/10/20 08:14:38;;;;;;;;;27.25;25.50;;;;;13.99;54.59;100355.06;5047066;28;8961;-78
2022/10/20 08:17:07;;;;;;;;;24.50;23.00;;;;;13.58;55.74;100353.31;5030819;28;9643;-77
2022/10/20 08:19:35;;;;;;;;;25.75;21.25;;;;;13.03;57.86;100358.47;5046841;28;9049;-77
2022/10/20 08:22:05;;;;;;;;;26.25;23.25;;;;;13.18;57.27;100360.25;5030277;28;9009;-78
2022/10/20 08:24:35;;;;;;;;;27.50;24.50;;;;;13.01;58.25;100362.81;5047476;28;8846;-78
2022/10/20 08:27:04;;;;;;;;;27.75;25.25;;;;;12.93;59.09;100369.75;5023778;28;8897;-78
2022/10/20 08:29:32;;;;;;;;;28.75;27.25;;;;;13.31;57.18;100366.38;5012821;28;8870;-77
2022/10/20 08:32:01;;;;;;;;;27.50;27.00;;;;;13.23;57.78;100366.34;5030900;28;8874;-77
2022/10/20 08:34:29;;;;;;;;;27.25;26.00;;;;;13.10;58.02;100364.56;5046499;28;8846;-78
2022/10/20 08:36:59;;;;;;;;;35.25;30.25;;;;;12.88;59.10;100375.00;5013509;28;8881;-80
2022/10/20 08:39:28;;;;;;;;;31.25;27.75;;;;;12.98;59.41;100378.50;5033414;28;8866;-85
2022/10/20 08:42:00;;;;;;;;;27.50;25.75;;;;;12.79;59.98;100369.72;5030913;28;8866;-75
2022/10/20 08:44:39;;;;;;;;;26.25;25.25;;;;;13.29;58.37;100371.63;5046395;28;8854;-72
2022/10/20 08:47:22;;;;;;;;;27.00;26.50;;;;;13.54;57.50;100377.78;5049053;28;9008;-82
2022/10/20 08:49:57;;;;;;;;;27.25;25.50;;;;;13.80;55.92;100367.31;5047968;28;8857;-82
2022/10/20 08:52:27;;;;;;;;;25.00;24.00;;;;;14.13;55.17;100369.91;5030022;28;8935;-77
2022/10/20 08:54:57;;;;;;;;;23.50;20.50;;;;;13.79;55.72;100372.56;5047410;28;8857;-81
2022/10/20 08:57:30;;;;;;;;;28.75;25.25;;;;;13.67;56.15;100369.91;5029677;28;8868;-77
2022/10/20 09:00:14;;;;;;;;;31.00;27.75;;;;;13.80;55.92;100372.56;5029823;28;8845;-78
2022/10/20 09:02:43;;;;;;;;;30.75;29.25;;;;;13.41;57.73;100382.13;5030083;28;8853;-79
2022/10/20 09:05:13;;;;;;;;;27.25;23.50;;;;;13.93;56.10;100370.81;5028051;28;8916;-80
2022/10/20 09:07:48;;;;;;;;;28.75;26.00;;;;;14.19;54.97;100369.88;5045282;28;9615;-77
2022/10/20 09:10:27;;;;;;;;;28.25;26.50;;;;;14.77;53.42;100368.84;5046521;28;8881;-79
2022/10/20 09:12:58;;;;;;;;;29.75;26.50;;;;;14.68;53.62;100366.25;5037193;28;8886;-76
2022/10/20 09:15:28;;;;;;;;;29.00;27.25;;;;;14.18;54.61;100366.38;5030567;28;8868;-78
2022/10/20 09:18:00;;;;;;;;;26.50;26.50;;;;;14.52;53.64;100373.31;5029218;28;8859;-77
2022/10/20 09:20:34;;;;;;;;;24.25;24.00;;;;;15.07;52.57;100373.09;5050197;28;8855;-78
2022/10/20 09:23:02;;;;;;;;;28.50;25.00;;;;;14.43;54.21;100377.69;5045074;28;9052;-79
2022/10/20 09:25:45;;;;;;;;;27.25;24.50;;;;;14.88;53.05;100372.31;5014409;28;8906;-78
2022/10/20 09:28:22;;;;;;;;;28.75;24.50;;;;;14.94;52.25;100381.91;5008008;28;8874;-77
2022/10/20 09:30:51;;;;;;;;;24.00;23.00;;;;;15.00;52.33;100387.13;5026312;28;8963;-76
2022/10/20 09:33:22;;;;;;;;;23.50;23.00;;;;;15.55;50.58;100383.28;5030300;28;8866;-81
2022/10/20 09:35:52;;;;;;;;;30.25;28.75;;;;;15.68;50.50;100382.28;4998285;28;8850;-79
2022/10/20 09:38:28;;;;;;;;;31.00;28.50;;;;;16.17;49.57;100383.66;5047191;28;8921;-78
2022/10/20 09:41:06;;;;;;;;;28.25;26.50;;;;;16.55;49.05;100377.09;5029129;28;8882;-78
2022/10/20 09:43:40;;;;;;;;;29.75;27.50;;;;;16.20;48.98;100388.00;4967380;28;8893;-86
2022/10/20 09:46:11;;;;;;;;;29.25;27.00;;;;;15.63;50.04;100386.72;5015777;28;8837;-76
2022/10/20 09:48:46;;;;;;;;;36.00;29.33;;;;;15.67;50.55;100387.56;5045522;28;8881;-80
2022/10/20 09:51:18;;;;;;;;;40.25;37.00;;;;;16.02;50.76;100381.19;5042528;28;8873;-79
2022/10/20 09:53:57;;;;;;;;;24.50;22.25;;;;;16.18;50.06;100374.84;5043311;28;8891;-78
2022/10/20 09:56:29;;;;;;;;;26.50;23.50;;;;;15.96;49.61;100384.72;5047438;28;8880;-79
2022/10/20 09:59:02;;;;;;;;;34.50;31.50;;;;;15.82;50.12;100387.47;5048430;28;8857;-78
2022/10/20 10:01:31;;;;;;;;;29.00;26.00;;;;;16.34;48.57;100386.97;5067305;28;8871;-81
2022/10/20 10:04:00;;;;;;;;;36.00;31.50;;;;;15.93;48.95;100379.50;5065927;28;8861;-81
2022/10/20 10:06:39;;;;;;;;;24.00;21.25;;;;;16.29;48.29;100383.50;5063684;28;8900;-77
2022/10/20 10:09:26;;;;;;;;;29.50;27.00;;;;;16.86;48.00;100385.53;5050875;28;8907;-76
2022/10/20 10:12:01;;;;;;;;;23.75;23.75;;;;;17.22;46.59;100371.84;5052889;28;8853;-76
2022/10/20 10:14:36;;;;;;;;;30.50;26.00;;;;;17.63;46.24;100373.00;5032406;28;8902;-79
2022/10/20 10:17:05;;;;;;;;;35.75;29.50;;;;;17.84;44.67;100364.75;5046592;28;8942;-77
2022/10/20 10:19:34;;;;;;;;;24.00;23.00;;;;;18.16;44.34;100359.81;5046761;28;8877;-77
2022/10/20 10:22:04;;;;;;;;;29.25;25.25;;;;;18.24;43.06;100358.78;5030421;28;8864;-77
2022/10/20 10:24:40;;;;;;;;;26.00;24.75;;;;;17.15;45.31;100368.47;5029735;28;8829;-79
2022/10/20 10:27:24;;;;;;;;;24.00;23.75;;;;;17.16;45.35;100364.91;5047320;28;8942;-76
2022/10/20 10:29:55;;;;;;;;;21.60;21.60;;;;;17.72;44.84;100349.97;5027797;28;8902;-79
2022/10/20 10:32:25;;;;;;;;;28.25;26.50;;;;;18.09;44.47;100356.38;5027279;28;8856;-82
2022/10/20 10:35:07;;;;;;;;;23.80;22.00;;;;;18.46;43.12;100343.34;5028167;28;8869;-80
2022/10/20 10:37:39;;;;;;;;;24.40;22.00;;;;;18.73;42.42;100343.69;5046634;28;8967;-78
2022/10/20 10:40:15;;;;;;;;;24.00;22.40;;;;;18.89;40.64;100337.22;5048068;28;8876;-77
2022/10/20 10:43:08;;;;;;;;;22.40;21.40;;;;;19.26;40.18;100336.38;5048464;28;8865;-82
2022/10/20 10:45:47;;;;;;;;;22.20;21.20;;;;;19.25;39.60;100331.97;4969936;28;8873;-83
2022/10/20 10:48:36;;;;;;;;;21.60;19.60;;;;;19.56;39.57;100333.00;4985747;28;8869;-81
2022/10/20 10:51:10;;;;;;;;;24.80;23.00;;;;;19.61;39.33;100326.69;4971054;28;9013;-80
2022/10/20 10:53:52;;;;;;;;;23.00;23.00;;;;;19.77;38.87;100321.94;4972348;28;8861;-81
2022/10/20 10:56:31;;;;;;;;;22.40;21.00;;;;;19.95;38.82;100314.41;5013714;28;8850;-81
2022/10/20 10:59:10;;;;;;;;;21.20;20.20;;;;;20.16;37.68;100312.97;5013983;28;8890;-81
2022/10/20 11:02:05;;;;;;;;;20.60;18.80;;;;;20.37;37.27;100314.13;5009421;28;8866;-83
2022/10/20 11:05:06;;;;;;;;;23.80;21.80;;;;;20.54;36.76;100301.25;5010168;28;8874;-84
2022/10/20 11:07:43;;;;;;;;;24.80;23.60;;;;;20.70;37.12;100299.06;4917575;29;8982;-81
2022/10/20 11:10:22;;;;;;;;;22.20;20.40;;;;;20.80;37.10;100302.28;4918565;29;8867;-82
2022/10/20 11:13:11;;;;;;;;;14.40;14.40;;;;;21.05;35.17;100293.59;4917316;29;8879;-82
2022/10/20 11:16:15;;;;;;;;;10.80;10.80;;;;;21.09;34.41;100296.06;4918963;29;8875;-82
2022/10/20 11:19:18;;;;;;;;;11.60;11.60;;;;;21.25;32.99;100299.13;4932961;29;8891;-82
2022/10/20 11:21:59;;;;;;;;;15.40;14.60;;;;;21.40;33.61;100292.44;4898904;29;8878;-84
2022/10/20 11:24:40;;;;;;;;;15.80;15.80;;;;;21.53;33.62;100292.91;4932950;29;8990;-85
2022/10/20 11:27:13;;;;;;;;;15.40;15.40;;;;;21.68;33.33;100295.06;4932931;29;8849;-83
2022/10/20 11:29:46;;;;;;;;;13.00;12.60;;;;;21.54;33.35;100286.69;4932393;29;9078;-82
2022/10/20 11:32:25;;;;;;;;;16.00;14.60;;;;;21.78;32.64;100283.19;4932726;29;9683;-82
2022/10/20 11:35:25;;;;;;;;;14.60;13.60;;;;;21.97;32.81;100283.41;4932710;29;8967;-84
2022/10/20 11:38:03;;;;;;;;;12.00;11.80;;;;;22.09;32.43;100287.41;4933317;29;8896;-82
2022/10/20 11:40:40;;;;;;;;;13.80;10.60;;;;;22.00;32.08;100278.00;4960422;28;8875;-80